sensor_id;sensor_type;location;lat;lon;timestamp;pressure;altitude;pressure_sealevel;temperature;humidity
56174;BME280;42058;52.308;20.924;2022-12-07T10:05:32;99774.66;;;0.40;100.00
56174;BME280;42058;52.308;20.924;2022-12-07T10:08:04;99779.84;;;0.40;100.00
56174;BME280;42058;52.308;20.924;2022-12-07T10:10:34;99779.02;;;0.44;100.00
56174;BME280;42058;52.308;20.924;2022-12-07T10:13:07;99776.02;;;0.49;100.00
56174;BME280;42058;52.308;20.924;2022-12-07T10:15:53;99777.74;;;0.56;100.00
56174;BME280;42058;52.308;20.924;2022-12-07T10:18:41;99775.61;;;0.64;100.00
56174;BME280;42058;52.308;20.924;2022-12-07T10:21:10;99778.67;;;0.72;100.00
56174;BME280;42058;52.308;20.924;2022-12-07T10:23:40;99772.20;;;0.80;100.00
56174;BME280;42058;52.308;20.924;2022-12-07T10:29:28;99768.80;;;0.93;100.00
56174;BME280;42058;52.308;20.924;2022-12-07T10:32:00;99771.81;;;1.02;100.00
56174;BME280;42058;52.308;20.924;2022-12-07T10:34:30;99765.37;;;1.10;100.00
56174;BME280;42058;52.308;20.924;2022-12-07T10:37:18;99765.37;;;1.16;100.00
56174;BME280;42058;52.308;20.924;2022-12-07T10:39:55;99763.22;;;1.23;100.00
56174;BME280;42058;52.308;20.924;2022-12-07T10:42:21;99766.24;;;1.29;100.00
56174;BME280;42058;52.308;20.924;2022-12-07T10:44:50;99761.08;;;1.33;100.00
56174;BME280;42058;52.308;20.924;2022-12-07T10:47:51;99768.39;;;1.39;100.00
56174;BME280;42058;52.308;20.924;2022-12-07T10:50:43;99760.19;;;1.44;100.00
56174;BME280;42058;52.308;20.924;2022-12-07T11:01:58;99761.48;;;1.62;100.00
56174;BME280;42058;52.308;20.924;2022-12-07T11:04:36;99759.34;;;1.66;100.00
56174;BME280;42058;52.308;20.924;2022-12-07T11:10:13;99757.58;;;1.73;100.00
56174;BME280;42058;52.308;20.924;2022-12-07T11:13:02;99766.66;;;1.78;100.00
56174;BME280;42058;52.308;20.924;2022-12-07T11:15:54;99761.03;;;1.81;100.00
56174;BME280;42058;52.308;20.924;2022-12-07T11:19:16;99764.90;;;1.84;100.00
56174;BME280;42058;52.308;20.924;2022-12-07T11:22:01;99761.02;;;1.89;100.00
56174;BME280;42058;52.308;20.924;2022-12-07T11:27:58;99758.39;;;1.95;100.00
56174;BME280;42058;52.308;20.924;2022-12-07T11:30:38;99760.58;;;1.97;100.00
56174;BME280;42058;52.308;20.924;2022-12-07T11:50:41;99737.58;;;2.17;100.00
56174;BME280;42058;52.308;20.924;2022-12-07T11:53:14;99741.03;;;2.19;100.00
56174;BME280;42058;52.308;20.924;2022-12-07T11:55:52;99734.09;;;2.21;100.00
56174;BME280;42058;52.308;20.924;2022-12-07T11:58:49;99734.98;;;2.23;100.00
56174;BME280;42058;52.308;20.924;2022-12-07T12:06:43;99723.27;;;2.32;100.00
56174;BME280;42058;52.308;20.924;2022-12-07T12:09:15;99727.12;;;2.35;100.00
56174;BME280;42058;52.308;20.924;2022-12-07T12:14:46;99727.11;;;2.43;100.00
56174;BME280;42058;52.308;20.924;2022-12-07T12:17:43;99725.78;;;2.46;100.00
56174;BME280;42058;52.308;20.924;2022-12-07T12:20:30;99722.73;;;2.48;100.00
56174;BME280;42058;52.308;20.924;2022-12-07T12:23:07;99724.92;;;2.48;100.00
56174;BME280;42058;52.308;20.924;2022-12-07T12:25:49;99714.09;;;2.49;100.00
56174;BME280;42058;52.308;20.924;2022-12-07T12:33:37;99710.59;;;2.52;100.00
56174;BME280;42058;52.308;20.924;2022-12-07T12:36:25;99710.14;;;2.54;100.00
56174;BME280;42058;52.308;20.924;2022-12-07T12:47:02;99707.09;;;2.59;100.00
56174;BME280;42058;52.308;20.924;2022-12-07T12:55:14;99699.74;;;2.61;100.00
56174;BME280;42058;52.308;20.924;2022-12-07T12:57:43;99698.86;;;2.61;100.00
56174;BME280;42058;52.308;20.924;2022-12-07T13:02:54;99696.26;;;2.61;100.00
56174;BME280;42058;52.308;20.924;2022-12-07T13:05:23;99692.80;;;2.62;100.00
56174;BME280;42058;52.308;20.924;2022-12-07T13:07:56;99688.90;;;2.63;100.00
56174;BME280;42058;52.308;20.924;2022-12-07T13:16:36;99689.31;;;2.64;100.00
56174;BME280;42058;52.308;20.924;2022-12-07T13:29:17;99694.11;;;2.60;100.00
56174;BME280;42058;52.308;20.924;2022-12-07T13:31:47;99689.80;;;2.58;100.00
56174;BME280;42058;52.308;20.924;2022-12-07T13:34:41;99687.66;;;2.56;100.00
56174;BME280;42058;52.308;20.924;2022-12-07T13:37:14;99687.22;;;2.53;100.00
56174;BME280;42058;52.308;20.924;2022-12-07T13:39:50;99682.47;;;2.53;100.00
56174;BME280;42058;52.308;20.924;2022-12-07T13:42:30;99691.56;;;2.53;100.00
56174;BME280;42058;52.308;20.924;2022-12-07T13:44:59;99689.82;;;2.52;100.00
56174;BME280;42058;52.308;20.924;2022-12-07T13:47:41;99693.30;;;2.52;100.00
56174;BME280;42058;52.308;20.924;2022-12-07T13:50:28;99693.31;;;2.49;100.00
56174;BME280;42058;52.308;20.924;2022-12-07T13:52:59;99692.87;;;2.48;100.00
56174;BME280;42058;52.308;20.924;2022-12-07T13:55:27;99691.61;;;2.46;100.00
56174;BME280;42058;52.308;20.924;2022-12-07T13:57:59;99686.83;;;2.44;100.00
56174;BME280;42058;52.308;20.924;2022-12-07T14:00:24;99693.32;;;2.44;100.00
56174;BME280;42058;52.308;20.924;2022-12-07T14:03:00;99687.27;;;2.44;100.00
56174;BME280;42058;52.308;20.924;2022-12-07T14:05:30;99692.91;;;2.43;100.00
56174;BME280;42058;52.308;20.924;2022-12-07T14:08:06;99692.91;;;2.43;100.00
56174;BME280;42058;52.308;20.924;2022-12-07T14:16:02;99696.81;;;2.37;100.00
56174;BME280;42058;52.308;20.924;2022-12-07T14:18:38;99696.81;;;2.37;100.00
56174;BME280;42058;52.308;20.924;2022-12-07T14:23:41;99704.64;;;2.31;100.00
56174;BME280;42058;52.308;20.924;2022-12-07T14:26:11;99706.83;;;2.30;100.00
56174;BME280;42058;52.308;20.924;2022-12-07T14:28:40;99701.20;;;2.29;100.00
56174;BME280;42058;52.308;20.924;2022-12-07T14:31:11;99705.95;;;2.28;100.00
56174;BME280;42058;52.308;20.924;2022-12-07T14:33:39;99712.03;;;2.27;100.00
56174;BME280;42058;52.308;20.924;2022-12-07T14:36:13;99704.24;;;2.24;100.00
56174;BME280;42058;52.308;20.924;2022-12-07T14:38:36;99701.23;;;2.21;100.00
56174;BME280;42058;52.308;20.924;2022-12-07T14:41:04;99704.69;;;2.19;100.00
56174;BME280;42058;52.308;20.924;2022-12-07T14:43:50;99705.14;;;2.17;100.00
56174;BME280;42058;52.308;20.924;2022-12-07T14:46:16;99701.28;;;2.14;100.00
56174;BME280;42058;52.308;20.924;2022-12-07T14:48:42;99702.13;;;2.11;100.00
56174;BME280;42058;52.308;20.924;2022-12-07T14:51:10;99697.83;;;2.02;100.00
56174;BME280;42058;52.308;20.924;2022-12-07T14:53:41;99708.21;;;2.04;100.00
56174;BME280;42058;52.308;20.924;2022-12-07T14:56:09;99706.06;;;2.00;100.00
56174;BME280;42058;52.308;20.924;2022-12-07T14:58:36;99700.91;;;1.97;100.00
56174;BME280;42058;52.308;20.924;2022-12-07T15:01:02;99700.02;;;1.95;100.00
56174;BME280;42058;52.308;20.924;2022-12-07T15:03:28;99699.16;;;1.93;100.00
56174;BME280;42058;52.308;20.924;2022-12-07T15:05:55;99700.05;;;1.92;100.00
56174;BME280;42058;52.308;20.924;2022-12-07T15:08:21;99691.82;;;1.89;100.00
56174;BME280;42058;52.308;20.924;2022-12-07T15:10:47;99688.37;;;1.87;100.00
56174;BME280;42058;52.308;20.924;2022-12-07T15:13:13;99692.70;;;1.87;100.00
56174;BME280;42058;52.308;20.924;2022-12-07T15:15:58;99691.85;;;1.85;100.00
56174;BME280;42058;52.308;20.924;2022-12-07T15:18:24;99688.41;;;1.83;100.00
56174;BME280;42058;52.308;20.924;2022-12-07T15:20:51;99687.52;;;1.82;100.00
56174;BME280;42058;52.308;20.924;2022-12-07T15:23:17;99681.47;;;1.82;100.00
56174;BME280;42058;52.308;20.924;2022-12-07T15:25:45;99681.47;;;1.82;100.00
56174;BME280;42058;52.308;20.924;2022-12-07T15:28:12;99683.66;;;1.81;100.00
56174;BME280;42058;52.308;20.924;2022-12-07T15:30:43;99681.06;;;1.81;100.00
56174;BME280;42058;52.308;20.924;2022-12-07T15:33:11;99679.33;;;1.80;100.00
56174;BME280;42058;52.308;20.924;2022-12-07T15:35:41;99685.81;;;1.80;100.00
56174;BME280;42058;52.308;20.924;2022-12-07T15:38:09;99681.47;;;1.79;100.00
56174;BME280;42058;52.308;20.924;2022-12-07T15:40:35;99678.88;;;1.79;100.00
56174;BME280;42058;52.308;20.924;2022-12-07T15:43:02;99674.98;;;1.79;100.00
56174;BME280;42058;52.308;20.924;2022-12-07T15:45:28;99677.17;;;1.78;100.00
56174;BME280;42058;52.308;20.924;2022-12-07T15:47:55;99672.39;;;1.79;100.00
56174;BME280;42058;52.308;20.924;2022-12-07T15:50:22;99663.34;;;1.74;100.00
56174;BME280;42058;52.308;20.924;2022-12-07T15:52:48;99671.54;;;1.75;100.00
56174;BME280;42058;52.308;20.924;2022-12-07T15:55:14;99671.98;;;1.75;100.00
56174;BME280;42058;52.308;20.924;2022-12-07T15:57:40;99670.27;;;1.73;100.00
56174;BME280;42058;52.308;20.924;2022-12-07T16:00:08;99671.57;;;1.73;100.00
56174;BME280;42058;52.308;20.924;2022-12-07T16:02:36;99664.20;;;1.75;100.00
56174;BME280;42058;52.308;20.924;2022-12-07T16:05:03;99667.69;;;1.73;100.00
56174;BME280;42058;52.308;20.924;2022-12-07T16:07:29;99666.80;;;1.75;100.00
56174;BME280;42058;52.308;20.924;2022-12-07T16:09:55;99664.20;;;1.75;100.00
56174;BME280;42058;52.308;20.924;2022-12-07T16:12:21;99667.69;;;1.73;100.00
56174;BME280;42058;52.308;20.924;2022-12-07T16:14:47;99664.64;;;1.74;100.00
56174;BME280;42058;52.308;20.924;2022-12-07T16:17:14;99655.98;;;1.77;100.00
56174;BME280;42058;52.308;20.924;2022-12-07T16:19:40;99665.50;;;1.76;100.00
56174;BME280;42058;52.308;20.924;2022-12-07T16:22:06;99665.50;;;1.78;100.00
56174;BME280;42058;52.308;20.924;2022-12-07T16:24:32;99660.72;;;1.79;100.00
56174;BME280;42058;52.308;20.924;2022-12-07T16:26:58;99659.42;;;1.79;100.00
56174;BME280;42058;52.308;20.924;2022-12-07T16:29:26;99664.61;;;1.79;100.00
56174;BME280;42058;52.308;20.924;2022-12-07T16:31:53;99662.02;;;1.82;100.00
56174;BME280;42058;52.308;20.924;2022-12-07T16:34:19;99668.06;;;1.82;100.00
56174;BME280;42058;52.308;20.924;2022-12-07T16:36:45;99668.50;;;1.82;100.00
56174;BME280;42058;52.308;20.924;2022-12-07T16:39:12;99666.77;;;1.84;100.00
56174;BME280;42058;52.308;20.924;2022-12-07T16:41:38;99664.61;;;1.85;100.00
56174;BME280;42058;52.308;20.924;2022-12-07T16:44:06;99667.20;;;1.85;100.00
56174;BME280;42058;52.308;20.924;2022-12-07T16:46:34;99662.02;;;1.85;100.00
56174;BME280;42058;52.308;20.924;2022-12-07T16:49:02;99659.84;;;1.87;100.00
56174;BME280;42058;52.308;20.924;2022-12-07T16:51:29;99654.65;;;1.89;100.00
56174;BME280;42058;52.308;20.924;2022-12-07T16:53:56;99652.05;;;1.89;100.00
56174;BME280;42058;52.308;20.924;2022-12-07T16:56:22;99646.86;;;1.89;100.00
56174;BME280;42058;52.308;20.924;2022-12-07T16:58:48;99650.75;;;1.89;100.00
56174;BME280;42058;52.308;20.924;2022-12-07T17:01:17;99650.75;;;1.90;100.00
56174;BME280;42058;52.308;20.924;2022-12-07T17:03:45;99642.53;;;1.89;100.00
56174;BME280;42058;52.308;20.924;2022-12-07T17:06:13;99640.38;;;1.92;100.00
56174;BME280;42058;52.308;20.924;2022-12-07T17:08:42;99642.53;;;1.91;100.00
56174;BME280;42058;52.308;20.924;2022-12-07T17:11:15;99640.38;;;1.90;100.00
56174;BME280;42058;52.308;20.924;2022-12-07T17:13:46;99636.05;;;1.91;100.00
56174;BME280;42058;52.308;20.924;2022-12-07T17:16:31;99649.45;;;1.92;100.00
56174;BME280;42058;52.308;20.924;2022-12-07T17:18:58;99652.05;;;1.92;100.00
56174;BME280;42058;52.308;20.924;2022-12-07T17:21:25;99645.97;;;1.93;100.00
56174;BME280;42058;52.308;20.924;2022-12-07T17:23:51;99654.64;;;1.92;100.00
56174;BME280;42058;52.308;20.924;2022-12-07T17:26:23;99648.16;;;1.92;100.00
56174;BME280;42058;52.308;20.924;2022-12-07T17:28:50;99652.05;;;1.92;100.00
56174;BME280;42058;52.308;20.924;2022-12-07T17:31:18;99651.61;;;1.92;100.00
56174;BME280;42058;52.308;20.924;2022-12-07T17:33:46;99654.20;;;1.92;100.00
56174;BME280;42058;52.308;20.924;2022-12-07T17:36:21;99652.02;;;1.95;100.00
56174;BME280;42058;52.308;20.924;2022-12-07T17:38:49;99654.61;;;1.95;100.00
56174;BME280;42058;52.308;20.924;2022-12-07T17:41:21;99654.20;;;1.96;100.00
56174;BME280;42058;52.308;20.924;2022-12-07T17:44:09;99653.76;;;1.96;100.00
56174;BME280;42058;52.308;20.924;2022-12-07T17:46:38;99655.05;;;1.96;100.00
56174;BME280;42058;52.308;20.924;2022-12-07T17:49:05;99652.45;;;1.96;100.00
56174;BME280;42058;52.308;20.924;2022-12-07T17:51:32;99648.56;;;1.96;100.00
56174;BME280;42058;52.308;20.924;2022-12-07T17:54:17;99654.61;;;1.95;100.00
56174;BME280;42058;52.308;20.924;2022-12-07T17:56:44;99653.34;;;1.92;100.00
56174;BME280;42058;52.308;20.924;2022-12-07T17:59:10;99654.20;;;1.92;100.00
56174;BME280;42058;52.308;20.924;2022-12-07T18:01:37;99655.50;;;1.91;100.00
56174;BME280;42058;52.308;20.924;2022-12-07T18:04:04;99651.20;;;1.88;100.00
56174;BME280;42058;52.308;20.924;2022-12-07T18:06:30;99658.98;;;1.90;100.00
56174;BME280;42058;52.308;20.924;2022-12-07T18:08:57;99658.98;;;1.90;100.00
56174;BME280;42058;52.308;20.924;2022-12-07T18:11:24;99667.17;;;1.89;100.00
56174;BME280;42058;52.308;20.924;2022-12-07T18:13:51;99658.09;;;1.89;100.00
56174;BME280;42058;52.308;20.924;2022-12-07T18:16:21;99662.43;;;1.89;100.00
56174;BME280;42058;52.308;20.924;2022-12-07T18:18:49;99670.22;;;1.89;100.00
56174;BME280;42058;52.308;20.924;2022-12-07T18:21:19;99665.02;;;1.86;100.00
56174;BME280;42058;52.308;20.924;2022-12-07T18:23:49;99670.22;;;1.84;100.00
56174;BME280;42058;52.308;20.924;2022-12-07T18:26:18;99669.36;;;1.82;100.00
56174;BME280;42058;52.308;20.924;2022-12-07T18:28:45;99672.84;;;1.83;100.00
56174;BME280;42058;52.308;20.924;2022-12-07T18:31:12;99673.25;;;1.82;100.00
56174;BME280;42058;52.308;20.924;2022-12-07T18:33:40;99673.69;;;1.82;100.00
56174;BME280;42058;52.308;20.924;2022-12-07T18:36:08;99672.84;;;1.80;100.00
56174;BME280;42058;52.308;20.924;2022-12-07T18:38:35;99671.13;;;1.77;100.00
56174;BME280;42058;52.308;20.924;2022-12-07T18:41:02;99675.02;;;1.76;100.00
56174;BME280;42058;52.308;20.924;2022-12-07T18:43:32;99681.06;;;1.75;100.00
56174;BME280;42058;52.308;20.924;2022-12-07T18:45:58;99679.35;;;1.73;100.00
56174;BME280;42058;52.308;20.924;2022-12-07T18:48:24;99681.95;;;1.72;100.00
56174;BME280;42058;52.308;20.924;2022-12-07T18:51:03;99685.39;;;1.71;100.00
56174;BME280;42058;52.308;20.924;2022-12-07T18:53:31;99687.13;;;1.70;100.00
56174;BME280;42058;52.308;20.924;2022-12-07T18:56:04;99691.88;;;1.69;100.00
56174;BME280;42058;52.308;20.924;2022-12-07T18:58:29;99691.88;;;1.69;100.00
56174;BME280;42058;52.308;20.924;2022-12-07T19:00:56;99690.16;;;1.68;100.00
56174;BME280;42058;52.308;20.924;2022-12-07T19:03:22;99688.42;;;1.67;100.00
56174;BME280;42058;52.308;20.924;2022-12-07T19:05:48;99694.05;;;1.65;100.00
56174;BME280;42058;52.308;20.924;2022-12-07T19:08:15;99690.16;;;1.65;100.00
56174;BME280;42058;52.308;20.924;2022-12-07T19:10:41;99692.75;;;1.64;100.00
56174;BME280;42058;52.308;20.924;2022-12-07T19:13:08;99695.34;;;1.64;100.00
56174;BME280;42058;52.308;20.924;2022-12-07T19:15:34;99697.09;;;1.63;100.00
56174;BME280;42058;52.308;20.924;2022-12-07T19:18:00;99698.38;;;1.62;100.00
56174;BME280;42058;52.308;20.924;2022-12-07T19:20:26;99705.72;;;1.62;100.00
56174;BME280;42058;52.308;20.924;2022-12-07T19:22:52;99700.53;;;1.62;100.00
56174;BME280;42058;52.308;20.924;2022-12-07T19:25:18;99708.75;;;1.63;100.00
56174;BME280;42058;52.308;20.924;2022-12-07T19:27:45;99713.95;;;1.63;100.00
56174;BME280;42058;52.308;20.924;2022-12-07T19:30:14;99710.05;;;1.63;100.00
56174;BME280;42058;52.308;20.924;2022-12-07T19:32:40;99707.91;;;1.61;100.00
56174;BME280;42058;52.308;20.924;2022-12-07T19:35:06;99711.34;;;1.60;100.00
56174;BME280;42058;52.308;20.924;2022-12-07T19:37:33;99715.67;;;1.60;100.00
56174;BME280;42058;52.308;20.924;2022-12-07T19:39:59;99720.01;;;1.59;100.00
56174;BME280;42058;52.308;20.924;2022-12-07T19:42:25;99717.83;;;1.60;100.00
56174;BME280;42058;52.308;20.924;2022-12-07T19:44:52;99720.42;;;1.59;100.00
56174;BME280;42058;52.308;20.924;2022-12-07T19:47:18;99716.56;;;1.57;100.00
56174;BME280;42058;52.308;20.924;2022-12-07T19:49:44;99725.63;;;1.56;100.00
56174;BME280;42058;52.308;20.924;2022-12-07T19:52:12;99720.00;;;1.53;100.00
56174;BME280;42058;52.308;20.924;2022-12-07T19:54:39;99724.33;;;1.52;100.00
56174;BME280;42058;52.308;20.924;2022-12-07T19:57:06;99737.28;;;1.51;100.00
56174;BME280;42058;52.308;20.924;2022-12-07T19:59:34;99736.88;;;1.50;100.00
56174;BME280;42058;52.308;20.924;2022-12-07T20:02:00;99744.65;;;1.48;100.00
56174;BME280;42058;52.308;20.924;2022-12-07T20:04:29;99750.28;;;1.48;100.00
56174;BME280;42058;52.308;20.924;2022-12-07T20:06:58;99758.46;;;1.46;100.00
56174;BME280;42058;52.308;20.924;2022-12-07T20:09:26;99764.94;;;1.46;100.00
56174;BME280;42058;52.308;20.924;2022-12-07T20:11:52;99766.27;;;1.43;100.00
56174;BME280;42058;52.308;20.924;2022-12-07T20:14:37;99772.74;;;1.43;100.00
56174;BME280;42058;52.308;20.924;2022-12-07T20:17:04;99769.70;;;1.40;100.00
56174;BME280;42058;52.308;20.924;2022-12-07T20:19:30;99770.58;;;1.38;100.00
56174;BME280;42058;52.308;20.924;2022-12-07T20:21:56;99767.98;;;1.36;100.00
56174;BME280;42058;52.308;20.924;2022-12-07T20:24:24;99763.64;;;1.35;100.00
56174;BME280;42058;52.308;20.924;2022-12-07T20:26:52;99769.27;;;1.34;100.00
56174;BME280;42058;52.308;20.924;2022-12-07T20:29:21;99771.00;;;1.32;100.00
56174;BME280;42058;52.308;20.924;2022-12-07T20:31:52;99774.47;;;1.31;100.00
56174;BME280;42058;52.308;20.924;2022-12-07T20:34:19;99777.47;;;1.29;100.00
56174;BME280;42058;52.308;20.924;2022-12-07T20:36:45;99783.09;;;1.29;100.00
56174;BME280;42058;52.308;20.924;2022-12-07T20:39:12;99783.97;;;1.26;100.00
56174;BME280;42058;52.308;20.924;2022-12-07T20:41:38;99789.59;;;1.24;100.00
56174;BME280;42058;52.308;20.924;2022-12-07T20:44:23;99793.02;;;1.23;100.00
56174;BME280;42058;52.308;20.924;2022-12-07T20:46:49;99799.50;;;1.23;100.00
56174;BME280;42058;52.308;20.924;2022-12-07T20:49:15;99804.25;;;1.24;100.00
56174;BME280;42058;52.308;20.924;2022-12-07T20:51:44;99800.80;;;1.22;100.00
56174;BME280;42058;52.308;20.924;2022-12-07T20:54:11;99807.71;;;1.21;100.00
56174;BME280;42058;52.308;20.924;2022-12-07T20:56:38;99809.00;;;1.20;100.00
56174;BME280;42058;52.308;20.924;2022-12-07T20:59:06;99807.70;;;1.18;100.00
56174;BME280;42058;52.308;20.924;2022-12-07T21:01:34;99803.80;;;1.17;100.00
56174;BME280;42058;52.308;20.924;2022-12-07T21:04:01;99804.67;;;1.14;100.00
56174;BME280;42058;52.308;20.924;2022-12-07T21:06:28;99799.92;;;1.12;100.00
56174;BME280;42058;52.308;20.924;2022-12-07T21:08:56;99808.55;;;1.11;100.00
56174;BME280;42058;52.308;20.924;2022-12-07T21:11:24;99809.42;;;1.08;100.00
56174;BME280;42058;52.308;20.924;2022-12-07T21:13:52;99812.44;;;1.06;100.00
56174;BME280;42058;52.308;20.924;2022-12-07T21:16:21;99816.31;;;1.05;100.00
56174;BME280;42058;52.308;20.924;2022-12-07T21:18:53;99819.33;;;1.01;100.00
56174;BME280;42058;52.308;20.924;2022-12-07T21:21:20;99818.03;;;1.00;100.00
56174;BME280;42058;52.308;20.924;2022-12-07T21:23:48;99824.95;;;1.01;100.00
56174;BME280;42058;52.308;20.924;2022-12-07T21:26:18;99821.05;;;0.98;100.00
56174;BME280;42058;52.308;20.924;2022-12-07T21:28:46;99825.36;;;0.95;100.00
56174;BME280;42058;52.308;20.924;2022-12-07T21:31:13;99825.80;;;0.93;100.00
56174;BME280;42058;52.308;20.924;2022-12-07T21:33:40;99824.50;;;0.93;100.00
56174;BME280;42058;52.308;20.924;2022-12-07T21:36:10;99830.11;;;0.91;100.00
56174;BME280;42058;52.308;20.924;2022-12-07T21:38:39;99830.95;;;0.90;100.00
56174;BME280;42058;52.308;20.924;2022-12-07T21:41:17;99830.09;;;0.88;100.00
56174;BME280;42058;52.308;20.924;2022-12-07T21:43:45;99829.21;;;0.89;100.00
56174;BME280;42058;52.308;20.924;2022-12-07T21:46:12;99834.82;;;0.87;100.00
56174;BME280;42058;52.308;20.924;2022-12-07T21:48:39;99833.52;;;0.86;100.00
56174;BME280;42058;52.308;20.924;2022-12-07T21:51:08;99826.61;;;0.83;100.00
56174;BME280;42058;52.308;20.924;2022-12-07T21:53:37;99834.38;;;0.83;100.00
56174;BME280;42058;52.308;20.924;2022-12-07T21:56:13;99840.86;;;0.79;100.00
56174;BME280;42058;52.308;20.924;2022-12-07T21:58:49;99829.62;;;0.75;100.00
56174;BME280;42058;52.308;20.924;2022-12-07T22:01:18;99828.33;;;0.75;100.00
56174;BME280;42058;52.308;20.924;2022-12-07T22:03:49;99828.72;;;0.73;100.00
56174;BME280;42058;52.308;20.924;2022-12-07T22:06:18;99818.80;;;0.71;100.00
56174;BME280;42058;52.308;20.924;2022-12-07T22:08:46;99821.38;;;0.71;100.00
56174;BME280;42058;52.308;20.924;2022-12-07T22:11:13;99832.62;;;0.70;100.00
56174;BME280;42058;52.308;20.924;2022-12-07T22:13:41;99839.09;;;0.70;100.00
56174;BME280;42058;52.308;20.924;2022-12-07T22:16:27;99831.33;;;0.70;100.00
56174;BME280;42058;52.308;20.924;2022-12-07T22:18:53;99833.91;;;0.68;100.00
56174;BME280;42058;52.308;20.924;2022-12-07T22:21:22;99833.05;;;0.68;100.00
56174;BME280;42058;52.308;20.924;2022-12-07T22:23:48;99839.06;;;0.65;100.00
56174;BME280;42058;52.308;20.924;2022-12-07T22:26:15;99836.05;;;0.64;100.00
56174;BME280;42058;52.308;20.924;2022-12-07T22:28:43;99833.87;;;0.64;100.00
56174;BME280;42058;52.308;20.924;2022-12-07T22:31:12;99843.38;;;0.63;100.00
56174;BME280;42058;52.308;20.924;2022-12-07T22:33:39;99839.05;;;0.61;100.00
56174;BME280;42058;52.308;20.924;2022-12-07T22:36:06;99839.05;;;0.61;100.00
56174;BME280;42058;52.308;20.924;2022-12-07T22:38:34;99833.87;;;0.61;100.00
56174;BME280;42058;52.308;20.924;2022-12-07T22:41:17;99839.46;;;0.60;100.00
56174;BME280;42058;52.308;20.924;2022-12-07T22:43:44;99833.42;;;0.60;100.00
56174;BME280;42058;52.308;20.924;2022-12-07T22:46:11;99841.20;;;0.60;100.00
56174;BME280;42058;52.308;20.924;2022-12-07T22:48:37;99838.61;;;0.60;100.00
56174;BME280;42058;52.308;20.924;2022-12-07T22:51:04;99833.87;;;0.59;100.00
56174;BME280;42058;52.308;20.924;2022-12-07T22:53:30;99845.10;;;0.63;100.00
56174;BME280;42058;52.308;20.924;2022-12-07T22:55:56;99843.36;;;0.62;100.00
56174;BME280;42058;52.308;20.924;2022-12-07T22:58:22;99840.36;;;0.62;100.00
56174;BME280;42058;52.308;20.924;2022-12-07T23:00:52;99822.23;;;0.61;100.00
56174;BME280;42058;52.308;20.924;2022-12-07T23:03:18;99831.70;;;0.62;100.00
56174;BME280;42058;52.308;20.924;2022-12-07T23:05:46;99828.25;;;0.60;100.00
56174;BME280;42058;52.308;20.924;2022-12-07T23:08:14;99833.01;;;0.59;100.00
56174;BME280;42058;52.308;20.924;2022-12-07T23:10:41;99834.30;;;0.59;100.00
56174;BME280;42058;52.308;20.924;2022-12-07T23:13:12;99835.15;;;0.57;100.00
56174;BME280;42058;52.308;20.924;2022-12-07T23:15:59;99838.19;;;0.59;100.00
56174;BME280;42058;52.308;20.924;2022-12-07T23:18:26;99839.03;;;0.57;100.00
56174;BME280;42058;52.308;20.924;2022-12-07T23:20:55;99845.05;;;0.56;100.00
56174;BME280;42058;52.308;20.924;2022-12-07T23:23:22;99837.71;;;0.54;100.00
56174;BME280;42058;52.308;20.924;2022-12-07T23:25:49;99839.89;;;0.53;100.00
56174;BME280;42058;52.308;20.924;2022-12-07T23:28:15;99842.02;;;0.52;100.00
56174;BME280;42058;52.308;20.924;2022-12-07T23:30:41;99849.37;;;0.51;100.00
56174;BME280;42058;52.308;20.924;2022-12-07T23:33:07;99845.91;;;0.49;100.00
56174;BME280;42058;52.308;20.924;2022-12-07T23:35:34;99843.33;;;0.49;100.00
56174;BME280;42058;52.308;20.924;2022-12-07T23:38:00;99856.69;;;0.50;100.00
56174;BME280;42058;52.308;20.924;2022-12-07T23:40:26;99847.20;;;0.49;100.00
56174;BME280;42058;52.308;20.924;2022-12-07T23:42:52;99850.19;;;0.47;100.00
56174;BME280;42058;52.308;20.924;2022-12-07T23:45:18;99857.55;;;0.48;100.00
56174;BME280;42058;52.308;20.924;2022-12-07T23:47:44;99852.36;;;0.46;100.00
56174;BME280;42058;52.308;20.924;2022-12-07T23:50:10;99851.92;;;0.47;100.00
56174;BME280;42058;52.308;20.924;2022-12-07T23:52:36;99844.59;;;0.46;100.00
56174;BME280;42058;52.308;20.924;2022-12-07T23:55:02;99848.89;;;0.47;100.00
56174;BME280;42058;52.308;20.924;2022-12-07T23:57:31;99851.48;;;0.47;100.00
56174;BME280;42058;52.308;20.924;2022-12-07T23:59:57;99845.03;;;0.46;100.00
